sensor_id;sensor_type;location;lat;lon;timestamp;temperature;humidity
20915;DHT22;10617;52.032;5.298;2022-12-20T00:02:31;10.00;99.90
20915;DHT22;10617;52.032;5.298;2022-12-20T00:06:34;10.10;99.90
20915;DHT22;10617;52.032;5.298;2022-12-20T00:10:40;10.10;99.90
20915;DHT22;10617;52.032;5.298;2022-12-20T00:14:42;10.10;99.90
20915;DHT22;10617;52.032;5.298;2022-12-20T00:18:43;10.20;99.90
20915;DHT22;10617;52.032;5.298;2022-12-20T00:22:45;10.20;99.90
20915;DHT22;10617;52.032;5.298;2022-12-20T00:26:47;10.20;99.90
20915;DHT22;10617;52.032;5.298;2022-12-20T00:30:52;10.30;99.90
20915;DHT22;10617;52.032;5.298;2022-12-20T00:34:53;10.30;99.90
20915;DHT22;10617;52.032;5.298;2022-12-20T00:38:55;10.30;99.90
20915;DHT22;10617;52.032;5.298;2022-12-20T00:42:57;10.30;99.90
20915;DHT22;10617;52.032;5.298;2022-12-20T00:46:59;10.40;99.90
20915;DHT22;10617;52.032;5.298;2022-12-20T00:51:02;10.40;99.90
20915;DHT22;10617;52.032;5.298;2022-12-20T00:55:04;10.40;99.90
20915;DHT22;10617;52.032;5.298;2022-12-20T00:59:05;10.40;99.90
20915;DHT22;10617;52.032;5.298;2022-12-20T01:03:07;10.50;99.90
20915;DHT22;10617;52.032;5.298;2022-12-20T01:07:09;10.50;99.90
20915;DHT22;10617;52.032;5.298;2022-12-20T01:11:18;10.50;99.90
20915;DHT22;10617;52.032;5.298;2022-12-20T01:15:20;10.50;99.90
20915;DHT22;10617;52.032;5.298;2022-12-20T01:19:22;10.50;99.90
20915;DHT22;10617;52.032;5.298;2022-12-20T01:23:23;10.40;99.90
20915;DHT22;10617;52.032;5.298;2022-12-20T01:27:25;10.40;99.90
20915;DHT22;10617;52.032;5.298;2022-12-20T01:31:28;10.30;99.90
20915;DHT22;10617;52.032;5.298;2022-12-20T01:35:30;10.10;99.90
20915;DHT22;10617;52.032;5.298;2022-12-20T01:39:32;10.00;99.90
20915;DHT22;10617;52.032;5.298;2022-12-20T01:48:04;9.90;99.90
20915;DHT22;10617;52.032;5.298;2022-12-20T01:52:08;9.80;99.90
20915;DHT22;10617;52.032;5.298;2022-12-20T01:56:11;9.80;99.90
20915;DHT22;10617;52.032;5.298;2022-12-20T02:00:13;9.80;99.90
20915;DHT22;10617;52.032;5.298;2022-12-20T02:04:15;9.70;99.90
20915;DHT22;10617;52.032;5.298;2022-12-20T02:08:17;9.70;99.90
20915;DHT22;10617;52.032;5.298;2022-12-20T02:12:20;9.70;99.90
20915;DHT22;10617;52.032;5.298;2022-12-20T02:16:24;9.70;99.90
20915;DHT22;10617;52.032;5.298;2022-12-20T02:24:52;9.70;99.90
20915;DHT22;10617;52.032;5.298;2022-12-20T02:29:06;9.80;99.90
20915;DHT22;10617;52.032;5.298;2022-12-20T02:33:12;9.80;99.90
20915;DHT22;10617;52.032;5.298;2022-12-20T02:37:14;9.80;99.90
20915;DHT22;10617;52.032;5.298;2022-12-20T02:45:21;9.80;99.90
20915;DHT22;10617;52.032;5.298;2022-12-20T02:49:27;9.80;99.90
20915;DHT22;10617;52.032;5.298;2022-12-20T02:53:29;9.90;99.90
20915;DHT22;10617;52.032;5.298;2022-12-20T03:01:47;9.90;99.90
20915;DHT22;10617;52.032;5.298;2022-12-20T03:05:51;9.90;99.90
20915;DHT22;10617;52.032;5.298;2022-12-20T03:09:53;9.90;99.90
20915;DHT22;10617;52.032;5.298;2022-12-20T03:13:55;9.90;99.90
20915;DHT22;10617;52.032;5.298;2022-12-20T03:17:56;9.90;99.90
20915;DHT22;10617;52.032;5.298;2022-12-20T03:21:58;9.90;99.90
20915;DHT22;10617;52.032;5.298;2022-12-20T03:25:59;10.00;99.90
20915;DHT22;10617;52.032;5.298;2022-12-20T03:30:02;10.00;99.90
20915;DHT22;10617;52.032;5.298;2022-12-20T03:34:03;10.00;99.90
20915;DHT22;10617;52.032;5.298;2022-12-20T03:38:05;10.00;99.90
20915;DHT22;10617;52.032;5.298;2022-12-20T03:42:07;10.10;99.90
20915;DHT22;10617;52.032;5.298;2022-12-20T03:46:09;10.10;99.90
20915;DHT22;10617;52.032;5.298;2022-12-20T03:50:10;10.10;99.90
20915;DHT22;10617;52.032;5.298;2022-12-20T03:54:12;10.20;99.90
20915;DHT22;10617;52.032;5.298;2022-12-20T03:58:14;10.20;99.90
20915;DHT22;10617;52.032;5.298;2022-12-20T04:02:15;10.30;99.90
20915;DHT22;10617;52.032;5.298;2022-12-20T04:06:17;10.30;99.90
20915;DHT22;10617;52.032;5.298;2022-12-20T04:10:19;10.40;99.90
20915;DHT22;10617;52.032;5.298;2022-12-20T04:14:21;10.40;99.90
20915;DHT22;10617;52.032;5.298;2022-12-20T04:18:22;10.40;99.90
20915;DHT22;10617;52.032;5.298;2022-12-20T04:22:24;10.50;99.90
20915;DHT22;10617;52.032;5.298;2022-12-20T04:26:26;10.50;99.90
20915;DHT22;10617;52.032;5.298;2022-12-20T04:30:28;10.50;99.90
20915;DHT22;10617;52.032;5.298;2022-12-20T04:34:29;10.50;99.90
20915;DHT22;10617;52.032;5.298;2022-12-20T04:38:31;10.50;99.90
20915;DHT22;10617;52.032;5.298;2022-12-20T04:42:33;10.60;99.90
20915;DHT22;10617;52.032;5.298;2022-12-20T04:46:34;10.60;99.90
20915;DHT22;10617;52.032;5.298;2022-12-20T04:50:36;10.60;99.90
20915;DHT22;10617;52.032;5.298;2022-12-20T04:54:38;10.60;99.90
20915;DHT22;10617;52.032;5.298;2022-12-20T04:58:39;10.50;99.90
20915;DHT22;10617;52.032;5.298;2022-12-20T05:02:41;10.40;99.90
20915;DHT22;10617;52.032;5.298;2022-12-20T05:06:43;10.40;99.90
20915;DHT22;10617;52.032;5.298;2022-12-20T05:10:45;10.30;99.90
20915;DHT22;10617;52.032;5.298;2022-12-20T05:14:47;10.40;99.90
20915;DHT22;10617;52.032;5.298;2022-12-20T05:18:49;10.40;99.90
20915;DHT22;10617;52.032;5.298;2022-12-20T05:22:50;10.40;99.90
20915;DHT22;10617;52.032;5.298;2022-12-20T05:27:11;10.40;99.90
20915;DHT22;10617;52.032;5.298;2022-12-20T05:31:12;10.40;99.90
20915;DHT22;10617;52.032;5.298;2022-12-20T05:35:14;10.40;99.90
20915;DHT22;10617;52.032;5.298;2022-12-20T05:39:15;10.50;99.90
20915;DHT22;10617;52.032;5.298;2022-12-20T05:43:18;10.50;99.90
20915;DHT22;10617;52.032;5.298;2022-12-20T05:47:19;10.50;99.90
20915;DHT22;10617;52.032;5.298;2022-12-20T05:51:21;10.60;99.90
20915;DHT22;10617;52.032;5.298;2022-12-20T05:55:23;10.60;99.90
20915;DHT22;10617;52.032;5.298;2022-12-20T05:59:25;10.60;99.90
20915;DHT22;10617;52.032;5.298;2022-12-20T06:03:26;10.60;99.90
20915;DHT22;10617;52.032;5.298;2022-12-20T06:07:28;10.60;99.90
20915;DHT22;10617;52.032;5.298;2022-12-20T06:11:29;10.60;99.90
20915;DHT22;10617;52.032;5.298;2022-12-20T06:15:31;10.70;99.90
20915;DHT22;10617;52.032;5.298;2022-12-20T06:19:33;10.70;99.90
20915;DHT22;10617;52.032;5.298;2022-12-20T06:23:34;10.70;99.90
20915;DHT22;10617;52.032;5.298;2022-12-20T06:27:36;10.80;99.90
20915;DHT22;10617;52.032;5.298;2022-12-20T06:31:38;10.80;99.90
20915;DHT22;10617;52.032;5.298;2022-12-20T06:35:40;10.90;99.90
20915;DHT22;10617;52.032;5.298;2022-12-20T06:39:42;10.90;99.90
20915;DHT22;10617;52.032;5.298;2022-12-20T06:43:43;10.90;99.90
20915;DHT22;10617;52.032;5.298;2022-12-20T06:47:45;11.00;99.90
20915;DHT22;10617;52.032;5.298;2022-12-20T06:51:47;11.00;99.90
20915;DHT22;10617;52.032;5.298;2022-12-20T06:55:49;11.00;99.90
20915;DHT22;10617;52.032;5.298;2022-12-20T06:59:50;11.00;99.90
20915;DHT22;10617;52.032;5.298;2022-12-20T07:03:52;11.00;99.90
20915;DHT22;10617;52.032;5.298;2022-12-20T07:07:54;11.10;99.90
20915;DHT22;10617;52.032;5.298;2022-12-20T07:11:56;11.10;99.90
20915;DHT22;10617;52.032;5.298;2022-12-20T07:15:58;11.10;99.90
20915;DHT22;10617;52.032;5.298;2022-12-20T07:19:59;11.20;99.90
20915;DHT22;10617;52.032;5.298;2022-12-20T07:24:01;11.20;99.90
20915;DHT22;10617;52.032;5.298;2022-12-20T07:28:03;11.20;99.90
20915;DHT22;10617;52.032;5.298;2022-12-20T07:32:05;11.20;99.90
20915;DHT22;10617;52.032;5.298;2022-12-20T07:36:09;11.30;99.90
20915;DHT22;10617;52.032;5.298;2022-12-20T07:40:11;11.30;99.90
20915;DHT22;10617;52.032;5.298;2022-12-20T07:44:13;11.30;99.90
20915;DHT22;10617;52.032;5.298;2022-12-20T07:48:14;11.30;99.90
20915;DHT22;10617;52.032;5.298;2022-12-20T07:52:20;11.30;99.90
20915;DHT22;10617;52.032;5.298;2022-12-20T07:56:23;11.20;99.90
20915;DHT22;10617;52.032;5.298;2022-12-20T08:00:26;11.10;99.90
20915;DHT22;10617;52.032;5.298;2022-12-20T08:04:28;11.10;99.90
20915;DHT22;10617;52.032;5.298;2022-12-20T08:08:31;11.10;99.90
20915;DHT22;10617;52.032;5.298;2022-12-20T08:12:34;11.00;99.90
20915;DHT22;10617;52.032;5.298;2022-12-20T08:16:36;11.00;99.90
20915;DHT22;10617;52.032;5.298;2022-12-20T08:20:37;11.00;99.90
20915;DHT22;10617;52.032;5.298;2022-12-20T08:24:39;11.00;99.90
20915;DHT22;10617;52.032;5.298;2022-12-20T08:28:40;11.00;99.90
20915;DHT22;10617;52.032;5.298;2022-12-20T08:32:42;11.00;99.90
20915;DHT22;10617;52.032;5.298;2022-12-20T08:36:44;11.00;99.90
20915;DHT22;10617;52.032;5.298;2022-12-20T08:40:45;11.00;99.90
20915;DHT22;10617;52.032;5.298;2022-12-20T08:44:47;11.00;99.90
20915;DHT22;10617;52.032;5.298;2022-12-20T08:48:48;11.00;99.90
20915;DHT22;10617;52.032;5.298;2022-12-20T08:52:50;11.00;99.90
20915;DHT22;10617;52.032;5.298;2022-12-20T08:56:52;11.00;99.90
20915;DHT22;10617;52.032;5.298;2022-12-20T09:00:56;10.90;99.90
20915;DHT22;10617;52.032;5.298;2022-12-20T09:05:03;10.80;99.90
20915;DHT22;10617;52.032;5.298;2022-12-20T09:09:05;10.70;99.90
20915;DHT22;10617;52.032;5.298;2022-12-20T09:13:08;10.60;99.90
20915;DHT22;10617;52.032;5.298;2022-12-20T09:17:09;10.60;99.90
20915;DHT22;10617;52.032;5.298;2022-12-20T09:21:11;10.60;99.90
20915;DHT22;10617;52.032;5.298;2022-12-20T09:25:13;10.60;99.90
20915;DHT22;10617;52.032;5.298;2022-12-20T09:29:14;10.50;99.90
20915;DHT22;10617;52.032;5.298;2022-12-20T09:33:21;10.50;99.90
20915;DHT22;10617;52.032;5.298;2022-12-20T09:37:23;10.40;99.90
20915;DHT22;10617;52.032;5.298;2022-12-20T09:41:28;10.40;99.90
20915;DHT22;10617;52.032;5.298;2022-12-20T09:45:33;10.40;99.90
20915;DHT22;10617;52.032;5.298;2022-12-20T09:49:36;10.40;99.90
20915;DHT22;10617;52.032;5.298;2022-12-20T10:01:52;10.30;99.90
20915;DHT22;10617;52.032;5.298;2022-12-20T10:05:55;10.30;99.90
20915;DHT22;10617;52.032;5.298;2022-12-20T10:10:02;10.30;99.90
20915;DHT22;10617;52.032;5.298;2022-12-20T10:22:41;10.30;99.90
20915;DHT22;10617;52.032;5.298;2022-12-20T10:26:44;10.30;99.90
20915;DHT22;10617;52.032;5.298;2022-12-20T10:30:46;10.30;99.90
20915;DHT22;10617;52.032;5.298;2022-12-20T10:34:54;10.30;99.90
20915;DHT22;10617;52.032;5.298;2022-12-20T10:38:58;10.30;99.90
20915;DHT22;10617;52.032;5.298;2022-12-20T10:43:01;10.30;99.90
20915;DHT22;10617;52.032;5.298;2022-12-20T10:47:03;10.40;99.90
20915;DHT22;10617;52.032;5.298;2022-12-20T10:51:21;10.40;99.90
20915;DHT22;10617;52.032;5.298;2022-12-20T10:59:35;10.30;99.90
20915;DHT22;10617;52.032;5.298;2022-12-20T11:03:54;10.40;99.90
20915;DHT22;10617;52.032;5.298;2022-12-20T11:08:08;10.40;99.90
20915;DHT22;10617;52.032;5.298;2022-12-20T11:12:32;10.40;99.90
20915;DHT22;10617;52.032;5.298;2022-12-20T11:16:35;10.40;99.90
20915;DHT22;10617;52.032;5.298;2022-12-20T11:20:56;10.40;99.90
20915;DHT22;10617;52.032;5.298;2022-12-20T11:25:06;10.40;99.90
20915;DHT22;10617;52.032;5.298;2022-12-20T11:37:26;10.40;99.90
20915;DHT22;10617;52.032;5.298;2022-12-20T11:50:10;10.40;99.90
20915;DHT22;10617;52.032;5.298;2022-12-20T11:54:07;10.40;99.90
20915;DHT22;10617;52.032;5.298;2022-12-20T12:02:21;10.50;99.90
20915;DHT22;10617;52.032;5.298;2022-12-20T12:06:28;10.50;99.90
20915;DHT22;10617;52.032;5.298;2022-12-20T12:10:34;10.50;99.90
20915;DHT22;10617;52.032;5.298;2022-12-20T12:14:55;10.50;99.90
20915;DHT22;10617;52.032;5.298;2022-12-20T12:18:58;10.50;99.90
20915;DHT22;10617;52.032;5.298;2022-12-20T12:23:02;10.60;99.90
20915;DHT22;10617;52.032;5.298;2022-12-20T12:27:06;10.60;99.90
20915;DHT22;10617;52.032;5.298;2022-12-20T12:31:16;10.60;99.90
20915;DHT22;10617;52.032;5.298;2022-12-20T12:39:27;10.60;99.90
20915;DHT22;10617;52.032;5.298;2022-12-20T12:51:40;10.60;99.90
20915;DHT22;10617;52.032;5.298;2022-12-20T12:55:44;10.60;99.90
20915;DHT22;10617;52.032;5.298;2022-12-20T12:59:47;10.60;99.90
20915;DHT22;10617;52.032;5.298;2022-12-20T13:07:54;10.60;99.90
20915;DHT22;10617;52.032;5.298;2022-12-20T13:11:56;10.60;99.90
20915;DHT22;10617;52.032;5.298;2022-12-20T13:16:04;10.60;99.90
20915;DHT22;10617;52.032;5.298;2022-12-20T13:20:14;10.70;99.90
20915;DHT22;10617;52.032;5.298;2022-12-20T13:24:35;10.70;99.90
20915;DHT22;10617;52.032;5.298;2022-12-20T13:28:43;10.70;99.90
20915;DHT22;10617;52.032;5.298;2022-12-20T13:36:49;10.70;99.90
20915;DHT22;10617;52.032;5.298;2022-12-20T13:40:59;10.70;99.90
20915;DHT22;10617;52.032;5.298;2022-12-20T13:45:01;10.70;99.90
20915;DHT22;10617;52.032;5.298;2022-12-20T13:49:03;10.70;99.90
20915;DHT22;10617;52.032;5.298;2022-12-20T13:53:06;10.70;99.90
20915;DHT22;10617;52.032;5.298;2022-12-20T13:57:18;10.70;99.90
20915;DHT22;10617;52.032;5.298;2022-12-20T14:01:22;10.60;99.90
20915;DHT22;10617;52.032;5.298;2022-12-20T14:05:25;10.70;99.90
20915;DHT22;10617;52.032;5.298;2022-12-20T14:13:33;10.60;99.90
20915;DHT22;10617;52.032;5.298;2022-12-20T14:17:34;10.70;99.90
20915;DHT22;10617;52.032;5.298;2022-12-20T14:21:42;10.60;99.90
20915;DHT22;10617;52.032;5.298;2022-12-20T14:29:49;10.60;99.90
20915;DHT22;10617;52.032;5.298;2022-12-20T14:38:03;10.60;99.90
20915;DHT22;10617;52.032;5.298;2022-12-20T14:46:16;10.60;99.90
20915;DHT22;10617;52.032;5.298;2022-12-20T14:50:25;10.60;99.90
20915;DHT22;10617;52.032;5.298;2022-12-20T14:54:28;10.50;99.90
20915;DHT22;10617;52.032;5.298;2022-12-20T14:59:04;10.50;99.90
20915;DHT22;10617;52.032;5.298;2022-12-20T15:03:13;10.60;99.90
20915;DHT22;10617;52.032;5.298;2022-12-20T15:07:27;10.50;99.90
20915;DHT22;10617;52.032;5.298;2022-12-20T15:11:29;10.50;99.90
20915;DHT22;10617;52.032;5.298;2022-12-20T15:15:31;10.50;99.90
20915;DHT22;10617;52.032;5.298;2022-12-20T15:19:34;10.50;99.90
20915;DHT22;10617;52.032;5.298;2022-12-20T15:23:42;10.50;99.90
20915;DHT22;10617;52.032;5.298;2022-12-20T15:27:45;10.50;99.90
20915;DHT22;10617;52.032;5.298;2022-12-20T15:31:47;10.50;99.90
20915;DHT22;10617;52.032;5.298;2022-12-20T15:35:49;10.50;99.90
20915;DHT22;10617;52.032;5.298;2022-12-20T15:39:51;10.50;99.90
20915;DHT22;10617;52.032;5.298;2022-12-20T15:44:04;10.40;99.90
20915;DHT22;10617;52.032;5.298;2022-12-20T15:48:08;10.40;99.90
20915;DHT22;10617;52.032;5.298;2022-12-20T15:52:19;10.40;99.90
20915;DHT22;10617;52.032;5.298;2022-12-20T15:56:22;10.40;99.90
20915;DHT22;10617;52.032;5.298;2022-12-20T16:00:24;10.40;99.90
20915;DHT22;10617;52.032;5.298;2022-12-20T16:04:26;10.40;99.90
20915;DHT22;10617;52.032;5.298;2022-12-20T16:08:29;10.40;99.90
20915;DHT22;10617;52.032;5.298;2022-12-20T16:12:32;10.40;99.90
20915;DHT22;10617;52.032;5.298;2022-12-20T16:16:35;10.40;99.90
20915;DHT22;10617;52.032;5.298;2022-12-20T16:20:37;10.40;99.90
20915;DHT22;10617;52.032;5.298;2022-12-20T16:24:39;10.40;99.90
20915;DHT22;10617;52.032;5.298;2022-12-20T16:28:41;10.40;99.90
20915;DHT22;10617;52.032;5.298;2022-12-20T16:32:43;10.40;99.90
20915;DHT22;10617;52.032;5.298;2022-12-20T16:36:45;10.30;99.90
20915;DHT22;10617;52.032;5.298;2022-12-20T16:40:46;10.30;99.90
20915;DHT22;10617;52.032;5.298;2022-12-20T16:44:50;10.30;99.90
20915;DHT22;10617;52.032;5.298;2022-12-20T16:48:52;10.30;99.90
20915;DHT22;10617;52.032;5.298;2022-12-20T16:52:54;10.30;99.90
20915;DHT22;10617;52.032;5.298;2022-12-20T16:56:56;10.30;99.90
20915;DHT22;10617;52.032;5.298;2022-12-20T17:00:58;10.30;99.90
20915;DHT22;10617;52.032;5.298;2022-12-20T17:05:00;10.30;99.90
20915;DHT22;10617;52.032;5.298;2022-12-20T17:09:02;10.30;99.90
20915;DHT22;10617;52.032;5.298;2022-12-20T17:13:04;10.30;99.90
20915;DHT22;10617;52.032;5.298;2022-12-20T17:17:06;10.30;99.90
20915;DHT22;10617;52.032;5.298;2022-12-20T17:25:29;10.30;99.90
20915;DHT22;10617;52.032;5.298;2022-12-20T17:29:32;10.30;99.90
20915;DHT22;10617;52.032;5.298;2022-12-20T17:33:34;10.30;99.90
20915;DHT22;10617;52.032;5.298;2022-12-20T17:37:36;10.30;99.90
20915;DHT22;10617;52.032;5.298;2022-12-20T17:41:37;10.30;99.90
20915;DHT22;10617;52.032;5.298;2022-12-20T17:45:39;10.30;99.90
20915;DHT22;10617;52.032;5.298;2022-12-20T17:49:41;10.30;99.90
20915;DHT22;10617;52.032;5.298;2022-12-20T17:53:44;10.30;99.90
20915;DHT22;10617;52.032;5.298;2022-12-20T17:57:46;10.30;99.90
20915;DHT22;10617;52.032;5.298;2022-12-20T18:01:48;10.30;99.90
20915;DHT22;10617;52.032;5.298;2022-12-20T18:05:50;10.20;99.90
20915;DHT22;10617;52.032;5.298;2022-12-20T18:09:52;10.20;99.90
20915;DHT22;10617;52.032;5.298;2022-12-20T18:13:56;10.30;99.90
20915;DHT22;10617;52.032;5.298;2022-12-20T18:18:06;10.20;99.90
20915;DHT22;10617;52.032;5.298;2022-12-20T18:22:08;10.20;99.90
20915;DHT22;10617;52.032;5.298;2022-12-20T18:26:16;10.20;99.90
20915;DHT22;10617;52.032;5.298;2022-12-20T18:30:18;10.20;99.90
20915;DHT22;10617;52.032;5.298;2022-12-20T18:34:20;10.20;99.90
20915;DHT22;10617;52.032;5.298;2022-12-20T18:38:22;10.20;99.90
20915;DHT22;10617;52.032;5.298;2022-12-20T18:42:23;10.20;99.90
20915;DHT22;10617;52.032;5.298;2022-12-20T18:46:25;10.20;99.90
20915;DHT22;10617;52.032;5.298;2022-12-20T18:50:27;10.20;99.90
20915;DHT22;10617;52.032;5.298;2022-12-20T18:54:29;10.20;99.90
20915;DHT22;10617;52.032;5.298;2022-12-20T18:58:31;10.20;99.90
20915;DHT22;10617;52.032;5.298;2022-12-20T19:02:32;10.20;99.90
20915;DHT22;10617;52.032;5.298;2022-12-20T19:06:35;10.20;99.90
20915;DHT22;10617;52.032;5.298;2022-12-20T19:10:36;10.20;99.90
20915;DHT22;10617;52.032;5.298;2022-12-20T19:14:38;10.20;99.90
20915;DHT22;10617;52.032;5.298;2022-12-20T19:18:40;10.20;99.90
20915;DHT22;10617;52.032;5.298;2022-12-20T19:22:42;10.20;99.90
20915;DHT22;10617;52.032;5.298;2022-12-20T19:26:43;10.10;99.90
20915;DHT22;10617;52.032;5.298;2022-12-20T19:30:45;10.10;99.90
20915;DHT22;10617;52.032;5.298;2022-12-20T19:34:47;10.10;99.90
20915;DHT22;10617;52.032;5.298;2022-12-20T19:38:49;10.10;99.90
20915;DHT22;10617;52.032;5.298;2022-12-20T19:42:51;10.10;99.90
20915;DHT22;10617;52.032;5.298;2022-12-20T19:46:53;10.10;99.90
20915;DHT22;10617;52.032;5.298;2022-12-20T19:51:05;10.20;99.90
20915;DHT22;10617;52.032;5.298;2022-12-20T19:55:09;10.10;99.90
20915;DHT22;10617;52.032;5.298;2022-12-20T19:59:11;10.10;99.90
20915;DHT22;10617;52.032;5.298;2022-12-20T20:03:14;10.10;99.90
20915;DHT22;10617;52.032;5.298;2022-12-20T20:07:16;10.10;99.90
20915;DHT22;10617;52.032;5.298;2022-12-20T20:11:18;10.10;99.90
20915;DHT22;10617;52.032;5.298;2022-12-20T20:15:21;10.20;99.90
20915;DHT22;10617;52.032;5.298;2022-12-20T20:19:22;10.20;99.90
20915;DHT22;10617;52.032;5.298;2022-12-20T20:23:25;10.10;99.90
20915;DHT22;10617;52.032;5.298;2022-12-20T20:27:27;10.10;99.90
20915;DHT22;10617;52.032;5.298;2022-12-20T20:31:28;10.10;99.90
20915;DHT22;10617;52.032;5.298;2022-12-20T20:35:30;10.20;99.90
20915;DHT22;10617;52.032;5.298;2022-12-20T20:39:32;10.10;99.90
20915;DHT22;10617;52.032;5.298;2022-12-20T20:43:34;10.10;99.90
20915;DHT22;10617;52.032;5.298;2022-12-20T20:47:38;10.10;99.90
20915;DHT22;10617;52.032;5.298;2022-12-20T20:51:40;10.10;99.90
20915;DHT22;10617;52.032;5.298;2022-12-20T20:55:41;10.10;99.90
20915;DHT22;10617;52.032;5.298;2022-12-20T20:59:43;10.10;99.90
20915;DHT22;10617;52.032;5.298;2022-12-20T21:03:45;10.10;99.90
20915;DHT22;10617;52.032;5.298;2022-12-20T21:07:47;10.10;99.90
20915;DHT22;10617;52.032;5.298;2022-12-20T21:11:48;10.10;99.90
20915;DHT22;10617;52.032;5.298;2022-12-20T21:15:50;10.00;99.90
20915;DHT22;10617;52.032;5.298;2022-12-20T21:19:53;10.00;99.90
20915;DHT22;10617;52.032;5.298;2022-12-20T21:23:54;10.00;99.90
20915;DHT22;10617;52.032;5.298;2022-12-20T21:27:56;10.00;99.90
20915;DHT22;10617;52.032;5.298;2022-12-20T21:31:58;10.00;99.90
20915;DHT22;10617;52.032;5.298;2022-12-20T21:36:04;10.00;99.90
20915;DHT22;10617;52.032;5.298;2022-12-20T21:40:06;9.90;99.90
20915;DHT22;10617;52.032;5.298;2022-12-20T21:44:08;9.90;99.90
20915;DHT22;10617;52.032;5.298;2022-12-20T21:48:11;9.90;99.90
20915;DHT22;10617;52.032;5.298;2022-12-20T21:52:12;9.90;99.90
20915;DHT22;10617;52.032;5.298;2022-12-20T21:56:14;9.90;99.90
20915;DHT22;10617;52.032;5.298;2022-12-20T22:00:16;9.90;99.90
20915;DHT22;10617;52.032;5.298;2022-12-20T22:04:22;9.90;99.90
20915;DHT22;10617;52.032;5.298;2022-12-20T22:08:24;9.80;99.90
20915;DHT22;10617;52.032;5.298;2022-12-20T22:12:26;9.80;99.90
20915;DHT22;10617;52.032;5.298;2022-12-20T22:16:28;9.80;99.90
20915;DHT22;10617;52.032;5.298;2022-12-20T22:20:31;9.80;99.90
20915;DHT22;10617;52.032;5.298;2022-12-20T22:24:32;9.80;99.90
20915;DHT22;10617;52.032;5.298;2022-12-20T22:28:38;9.70;99.90
20915;DHT22;10617;52.032;5.298;2022-12-20T22:32:40;9.80;99.90
20915;DHT22;10617;52.032;5.298;2022-12-20T22:36:41;9.70;99.90
20915;DHT22;10617;52.032;5.298;2022-12-20T22:40:44;9.70;99.90
20915;DHT22;10617;52.032;5.298;2022-12-20T22:44:45;9.70;99.90
20915;DHT22;10617;52.032;5.298;2022-12-20T22:48:47;9.60;99.90
20915;DHT22;10617;52.032;5.298;2022-12-20T23:03:23;9.60;99.90
20915;DHT22;10617;52.032;5.298;2022-12-20T23:07:25;9.50;99.90
20915;DHT22;10617;52.032;5.298;2022-12-20T23:11:27;9.50;99.90
20915;DHT22;10617;52.032;5.298;2022-12-20T23:15:47;9.50;99.90
20915;DHT22;10617;52.032;5.298;2022-12-20T23:19:49;9.50;99.90
20915;DHT22;10617;52.032;5.298;2022-12-20T23:24:09;9.50;99.90
20915;DHT22;10617;52.032;5.298;2022-12-20T23:28:11;9.50;99.90
20915;DHT22;10617;52.032;5.298;2022-12-20T23:32:13;9.50;99.90
20915;DHT22;10617;52.032;5.298;2022-12-20T23:36:15;9.50;99.90
20915;DHT22;10617;52.032;5.298;2022-12-20T23:40:16;9.40;99.90
20915;DHT22;10617;52.032;5.298;2022-12-20T23:44:18;9.40;99.90
20915;DHT22;10617;52.032;5.298;2022-12-20T23:48:20;9.40;99.90
20915;DHT22;10617;52.032;5.298;2022-12-20T23:52:21;9.40;99.90
20915;DHT22;10617;52.032;5.298;2022-12-20T23:56:23;9.40;99.90
